Time;durP1;ratioP1;P1;durP2;ratioP2;P2;SDS_P1;SDS_P2;PMS_P1;PMS_P2;Temp;Humidity;BMP_temperature;BMP_pressure;BME280_temperature;BME280_humidity;BME280_pressure;Samples;Min_cycle;Max_cycle;Signal;HPM_P1;HPM_P2
2022/09/20 00:00:00;;;;;;;6.40;4.60;;;;;;;10.26;86.55;99732.06;130540;1268;108658;-74
2022/09/20 00:03:05;;;;;;;8.20;5.70;;;;;;;10.22;86.38;99737.48;130453;1267;108813;-75
2022/09/20 00:06:13;;;;;;;7.60;5.80;;;;;;;10.17;87.01;99742.83;130421;1268;108935;-75
2022/09/20 00:09:18;;;;;;;8.30;5.80;;;;;;;10.09;87.34;99740.64;130569;1267;108628;-75
2022/09/20 00:12:23;;;;;;;9.80;6.00;;;;;;;10.06;87.03;99745.53;130496;1268;111083;-75
2022/09/20 00:15:29;;;;;;;7.30;5.40;;;;;;;10.04;86.82;99748.73;130371;1267;108903;-75
2022/09/20 00:18:34;;;;;;;8.20;4.80;;;;;;;10.00;87.06;99750.09;130485;1267;108857;-75
2022/09/20 00:21:40;;;;;;;7.00;5.30;;;;;;;10.00;86.78;99749.38;130489;1267;109137;-75
2022/09/20 00:24:46;;;;;;;7.10;5.30;;;;;;;10.02;86.87;99749.36;130520;1267;107151;-75
2022/09/20 00:27:51;;;;;;;6.60;5.50;;;;;;;10.03;86.82;99751.36;130371;1267;109126;-74
2022/09/20 00:30:57;;;;;;;7.90;5.80;;;;;;;10.03;86.57;99750.80;130410;1267;108957;-75
2022/09/20 00:37:25;;;;;;;7.60;4.80;;;;;;;10.00;86.95;99755.21;130437;1268;109072;-74
2022/09/20 00:40:31;;;;;;;7.80;4.70;;;;;;;10.00;87.01;99755.19;130383;1268;108796;-75
2022/09/20 00:43:41;;;;;;;6.70;5.40;;;;;;;10.00;86.72;99759.98;130438;1268;108748;-76
2022/09/20 00:46:47;;;;;;;7.60;5.50;;;;;;;10.02;86.78;99760.15;130505;1267;107135;-74
2022/09/20 00:49:56;;;;;;;10.40;6.20;;;;;;;10.04;86.78;99761.19;130465;1268;108876;-75
2022/09/20 00:53:07;;;;;;;5.90;4.20;;;;;;;10.00;86.42;99760.61;130421;1268;108647;-75
2022/09/20 00:56:16;;;;;;;6.80;4.50;;;;;;;9.94;86.90;99757.16;130447;1267;109320;-76
2022/09/20 00:59:25;;;;;;;6.00;4.90;;;;;;;9.91;86.78;99759.92;130508;1268;106703;-75
2022/09/20 01:02:32;;;;;;;6.60;5.30;;;;;;;9.89;87.13;99760.10;130341;1268;148499;-76
2022/09/20 01:05:39;;;;;;;7.50;5.00;;;;;;;9.89;87.10;99756.74;130472;1267;108688;-76
2022/09/20 01:08:49;;;;;;;8.70;6.00;;;;;;;9.89;87.11;99755.31;130489;1268;108941;-75
2022/09/20 01:11:56;;;;;;;7.40;5.00;;;;;;;9.84;86.63;99754.29;130370;1267;108511;-75
2022/09/20 01:15:05;;;;;;;7.40;4.10;;;;;;;9.82;86.78;99756.34;130537;1268;109112;-75
2022/09/20 01:18:11;;;;;;;9.30;5.10;;;;;;;9.81;86.81;99755.05;130488;1268;108716;-75
2022/09/20 01:21:18;;;;;;;6.60;5.00;;;;;;;9.81;86.87;99759.15;130424;1268;107689;-76
2022/09/20 01:24:30;;;;;;;7.10;5.40;;;;;;;9.81;86.58;99759.12;130512;1268;108519;-75
2022/09/20 01:27:47;;;;;;;6.90;4.80;;;;;;;9.79;86.78;99761.70;130467;1268;108677;-76
2022/09/20 01:31:02;;;;;;;7.50;4.60;;;;;;;9.72;86.63;99765.13;130379;1268;108943;-76
2022/09/20 01:34:13;;;;;;;6.20;4.00;;;;;;;9.66;86.81;99766.60;130456;1268;108555;-75
2022/09/20 01:37:24;;;;;;;7.50;4.60;;;;;;;9.65;86.67;99770.40;130433;1267;108770;-75
2022/09/20 01:40:39;;;;;;;7.50;4.90;;;;;;;9.62;86.91;99771.30;130421;1267;109204;-74
2022/09/20 01:43:51;;;;;;;7.70;4.70;;;;;;;9.61;86.80;99771.23;130435;1267;109599;-74
2022/09/20 01:46:58;;;;;;;;;;;;;;;9.58;86.85;99770.26;130457;1267;106981;-74
2022/09/20 01:50:15;;;;;;;6.20;4.70;;;;;;;9.56;86.62;99771.51;130537;1268;108859;-74
2022/09/20 01:53:48;;;;;;;6.20;4.40;;;;;;;9.51;86.74;99769.55;130461;1268;108773;-75
2022/09/20 01:57:20;;;;;;;5.80;3.70;;;;;;;9.47;86.87;99772.13;130384;1268;108688;-73
2022/09/20 02:00:29;;;;;;;8.90;4.60;;;;;;;9.44;86.56;99770.62;130428;1268;108628;-74
2022/09/20 02:04:14;;;;;;;6.00;4.50;;;;;;;9.45;86.75;99763.80;130530;1268;108047;-75
2022/09/20 02:07:51;;;;;;;7.00;5.00;;;;;;;9.48;86.77;99764.23;130474;1268;108777;-74
2022/09/20 02:11:12;;;;;;;5.90;4.40;;;;;;;9.49;86.79;99769.28;130416;1268;108505;-75
2022/09/20 02:14:34;;;;;;;6.10;3.70;;;;;;;9.49;86.80;99769.74;130472;1268;109093;-75
2022/09/20 02:17:46;;;;;;;;;;;;;;;9.49;87.20;99767.78;130489;1268;108953;-76
2022/09/20 02:20:56;;;;;;;5.90;3.90;;;;;;;9.50;86.98;99780.16;130531;1268;108811;-76
2022/09/20 02:24:12;;;;;;;4.70;3.50;;;;;;;9.49;86.92;99781.15;130554;1267;108583;-76
2022/09/20 02:27:27;;;;;;;6.70;4.30;;;;;;;9.51;86.88;99781.67;130487;1268;107901;-75
2022/09/20 02:30:46;;;;;;;6.00;4.70;;;;;;;9.53;86.67;99781.65;130528;1268;107718;-75
2022/09/20 02:34:10;;;;;;;5.70;4.70;;;;;;;9.51;86.60;99784.50;130574;1267;108961;-75
2022/09/20 02:37:38;;;;;;;7.20;5.00;;;;;;;9.45;86.62;99785.63;130415;1268;108852;-76
2022/09/20 02:41:11;;;;;;;7.60;4.60;;;;;;;9.35;86.86;99786.11;130445;1268;106851;-76
2022/09/20 02:44:31;;;;;;;7.40;4.20;;;;;;;9.26;87.12;99785.91;130582;1268;108702;-77
2022/09/20 02:47:39;;;;;;;7.00;4.60;;;;;;;9.23;87.22;99793.84;130535;1268;109018;-77
2022/09/20 02:50:54;;;;;;;5.90;4.70;;;;;;;9.16;87.55;99802.58;130598;1268;107414;-74
2022/09/20 02:54:11;;;;;;;6.40;4.10;;;;;;;9.13;87.59;99802.73;130609;1268;107001;-76
2022/09/20 02:57:25;;;;;;;5.50;4.20;;;;;;;9.10;87.90;99806.75;130583;1268;108839;-78
2022/09/20 03:00:37;;;;;;;6.50;4.00;;;;;;;9.02;87.59;99803.27;130436;1268;108588;-82
2022/09/20 03:03:51;;;;;;;5.50;3.60;;;;;;;9.02;87.47;99801.80;130467;1268;109736;-79
2022/09/20 03:07:06;;;;;;;5.90;4.50;;;;;;;9.04;87.64;99801.33;130382;1268;108978;-78
2022/09/20 03:10:22;;;;;;;8.50;5.90;;;;;;;9.07;87.59;99801.94;130457;1268;109481;-78
2022/09/20 03:13:42;;;;;;;8.70;6.00;;;;;;;9.09;87.58;99801.93;130418;1268;108623;-79
2022/09/20 03:17:01;;;;;;;8.10;5.30;;;;;;;9.08;87.56;99802.90;130371;1268;109013;-78
2022/09/20 03:20:15;;;;;;;6.50;5.30;;;;;;;9.00;87.90;99803.12;130371;1268;108977;-78
2022/09/20 03:23:38;;;;;;;7.10;5.20;;;;;;;8.93;88.10;99805.59;130437;1268;109840;-78
2022/09/20 03:26:55;;;;;;;6.80;5.50;;;;;;;8.88;88.07;99806.42;130553;1268;108920;-79
2022/09/20 03:30:22;;;;;;;8.90;6.60;;;;;;;8.90;88.39;99806.13;130391;1268;108678;-78
2022/09/20 03:33:42;;;;;;;14.40;9.00;;;;;;;8.93;88.44;99804.06;130441;1268;108075;-78
2022/09/20 03:37:03;;;;;;;9.70;7.10;;;;;;;8.97;88.61;99806.65;130372;1268;108878;-79
2022/09/20 03:40:37;;;;;;;8.30;6.40;;;;;;;8.97;88.68;99807.81;130407;1268;108536;-78
2022/09/20 03:44:05;;;;;;;10.60;7.30;;;;;;;9.02;89.96;99813.24;130481;1268;108614;-80
2022/09/20 03:47:24;;;;;;;15.10;9.10;;;;;;;9.02;89.31;99812.83;130471;1268;108867;-79
2022/09/20 03:50:45;;;;;;;11.50;9.10;;;;;;;9.08;89.20;99816.32;130411;1268;109705;-79
2022/09/20 03:54:23;;;;;;;9.50;7.30;;;;;;;9.10;89.43;99819.73;130473;1268;108920;-79
2022/09/20 03:57:44;;;;;;;7.70;6.30;;;;;;;9.00;90.03;99818.21;130432;1268;108934;-78
2022/09/20 04:01:05;;;;;;;10.10;7.10;;;;;;;8.98;89.14;99820.20;130552;1268;108777;-77
2022/09/20 04:04:22;;;;;;;8.20;7.30;;;;;;;9.01;89.09;99818.63;130395;1267;108784;-77
2022/09/20 04:07:42;;;;;;;9.60;7.90;;;;;;;9.04;89.28;99822.45;130372;1268;108854;-78
2022/09/20 04:11:01;;;;;;;8.30;7.30;;;;;;;8.97;89.09;99826.08;130374;1268;108772;-78
2022/09/20 04:14:15;;;;;;;7.50;6.70;;;;;;;8.93;89.17;99828.61;130470;1268;108709;-75
2022/09/20 04:17:31;;;;;;;7.30;5.80;;;;;;;8.90;88.95;99828.92;130431;1268;107606;-76
2022/09/20 04:20:45;;;;;;;9.60;7.50;;;;;;;8.93;89.14;99830.43;130356;1268;108884;-77
2022/09/20 04:23:56;;;;;;;8.50;6.60;;;;;;;8.92;89.10;99828.97;130609;1268;107957;-76
2022/09/20 04:27:09;;;;;;;9.50;7.30;;;;;;;8.96;88.91;99830.13;130454;1268;108903;-76
2022/09/20 04:30:20;;;;;;;10.50;7.60;;;;;;;9.00;88.82;99826.70;130586;1268;108750;-76
2022/09/20 04:33:30;;;;;;;8.70;6.60;;;;;;;9.03;88.74;99831.92;130444;1268;109181;-75
2022/09/20 04:36:59;;;;;;;7.20;5.50;;;;;;;9.08;88.86;99835.53;130456;1268;108951;-75
2022/09/20 04:40:50;;;;;;;7.90;6.70;;;;;;;9.12;88.70;99842.73;130481;1268;107585;-74
2022/09/20 04:44:20;;;;;;;26.60;23.70;;;;;;;9.15;88.81;99848.85;130490;1268;108587;-74
2022/09/20 04:48:10;;;;;;;57.70;42.00;;;;;;;9.16;88.68;99850.16;130551;1268;106665;-75
2022/09/20 04:51:48;;;;;;;21.50;15.30;;;;;;;9.20;88.82;99854.20;130383;1268;108748;-76
2022/09/20 04:55:29;;;;;;;11.80;8.40;;;;;;;9.20;88.74;99858.05;130419;1268;107042;-74
2022/09/20 04:58:45;;;;;;;17.20;13.00;;;;;;;9.25;88.75;99855.65;130347;1267;109124;-74
2022/09/20 05:02:22;;;;;;;33.00;24.50;;;;;;;9.30;88.70;99861.15;130449;1267;109130;-76
2022/09/20 05:06:01;;;;;;;23.70;19.10;;;;;;;9.38;88.66;99867.80;130543;1268;110164;-75
2022/09/20 05:09:39;;;;;;;17.50;13.60;;;;;;;9.49;88.70;99877.20;130412;1268;108857;-75
2022/09/20 05:13:07;;;;;;;22.50;17.60;;;;;;;9.57;88.57;99881.19;130444;1268;108633;-76
2022/09/20 05:16:22;;;;;;;212.60;189.30;;;;;;;9.63;88.43;99887.31;130300;1268;107694;-75
2022/09/20 05:19:38;;;;;;;19.20;15.70;;;;;;;9.62;88.67;99888.42;130795;1268;108792;-80
2022/09/20 05:23:09;;;;;;;9.70;7.30;;;;;;;9.68;88.81;99900.14;130511;1268;109168;-79
2022/09/20 05:26:19;;;;;;;8.50;6.90;;;;;;;9.70;88.70;99902.27;130438;1268;108691;-78
2022/09/20 05:29:31;;;;;;;10.50;8.30;;;;;;;9.76;88.57;99903.06;130520;1268;109486;-74
2022/09/20 05:32:39;;;;;;;;;;;;;;;9.86;88.65;99905.63;130503;1268;108700;-74
2022/09/20 05:35:50;;;;;;;8.30;7.30;;;;;;;9.93;88.41;99915.72;130486;1268;108551;-75
2022/09/20 05:39:00;;;;;;;7.10;5.20;;;;;;;9.91;88.54;99919.30;130417;1268;108853;-73
2022/09/20 05:42:17;;;;;;;27.90;14.20;;;;;;;9.82;88.71;99919.85;130382;1268;108691;-74
2022/09/20 05:45:38;;;;;;;8.60;6.30;;;;;;;9.80;88.82;99923.61;130415;1268;108701;-73
2022/09/20 05:48:56;;;;;;;8.60;7.00;;;;;;;9.77;88.90;99924.61;130399;1268;108768;-75
2022/09/20 05:52:14;;;;;;;105.10;66.20;;;;;;;9.78;88.96;99929.11;130477;1268;108666;-74
2022/09/20 05:55:46;;;;;;;11.00;8.40;;;;;;;9.86;89.05;99929.45;130449;1267;109027;-74
2022/09/20 05:59:11;;;;;;;8.50;6.70;;;;;;;9.90;88.92;99927.40;130384;1268;108659;-74
2022/09/20 06:02:32;;;;;;;8.70;6.90;;;;;;;9.94;88.86;99927.30;130611;1268;108669;-74
2022/09/20 06:05:49;;;;;;;8.90;7.10;;;;;;;10.04;89.02;99926.68;130586;1268;107664;-74
2022/09/20 06:09:09;;;;;;;7.80;6.80;;;;;;;10.20;88.78;99928.32;130358;1268;108635;-73
2022/09/20 06:12:37;;;;;;;8.80;7.40;;;;;;;10.26;88.54;99935.42;130479;1268;107368;-73
2022/09/20 06:15:50;;;;;;;6.50;5.70;;;;;;;10.27;88.45;99940.52;130349;1268;109053;-74
2022/09/20 06:19:04;;;;;;;22.80;17.80;;;;;;;10.30;88.84;99942.14;130554;1268;108728;-73
2022/09/20 06:22:17;;;;;;;38.20;26.20;;;;;;;10.45;88.66;99946.49;130465;1268;109695;-74
2022/09/20 06:25:23;;;;;;;;;;;;;;;10.50;88.13;99944.35;130617;1267;108736;-73
2022/09/20 06:28:34;;;;;;;13.70;9.30;;;;;;;10.52;88.07;99948.42;130414;1268;108820;-73
2022/09/20 06:31:39;;;;;;;15.50;11.20;;;;;;;10.48;88.13;99949.32;130422;1268;108657;-74
2022/09/20 06:34:45;;;;;;;10.20;8.30;;;;;;;10.56;88.13;99948.52;130431;1268;108911;-74
2022/09/20 06:41:30;;;;;;;11.60;7.90;;;;;;;10.49;87.85;99944.98;130468;1268;109549;-74
2022/09/20 06:44:40;;;;;;;;;;;;;;;10.54;87.87;99940.53;130437;1268;109216;-74
2022/09/20 06:47:45;;;;;;;8.80;7.50;;;;;;;10.63;87.93;99942.64;130428;1268;109648;-74
2022/09/20 06:50:51;;;;;;;26.90;17.10;;;;;;;10.64;87.70;99942.61;130427;1268;109983;-74
2022/09/20 06:53:57;;;;;;;20.20;13.50;;;;;;;10.63;87.49;99941.34;130448;1268;108771;-73
2022/09/20 06:57:06;;;;;;;12.60;7.80;;;;;;;10.71;88.01;99940.70;130379;1268;108724;-74
2022/09/20 07:00:15;;;;;;;10.20;8.30;;;;;;;10.80;87.86;99943.36;130476;1268;108761;-73
2022/09/20 07:03:21;;;;;;;10.70;8.40;;;;;;;10.86;87.17;99945.79;130511;1268;108717;-73
2022/09/20 07:06:28;;;;;;;11.10;8.70;;;;;;;10.88;87.55;99947.33;130489;1268;109296;-74
2022/09/20 07:09:33;;;;;;;12.00;9.30;;;;;;;10.96;87.54;99952.16;130501;1268;108643;-74
2022/09/20 07:12:38;;;;;;;13.10;11.60;;;;;;;11.06;87.62;99955.17;130481;1268;108701;-75
2022/09/20 07:15:44;;;;;;;11.90;10.10;;;;;;;11.20;87.86;99957.06;130374;1268;108599;-74
2022/09/20 07:18:51;;;;;;;10.10;9.00;;;;;;;11.39;87.38;99965.55;130384;1268;109194;-73
2022/09/20 07:21:56;;;;;;;10.30;9.30;;;;;;;11.44;86.66;99964.64;130477;1268;108684;-73
2022/09/20 07:25:02;;;;;;;11.80;9.20;;;;;;;11.47;86.87;99973.95;130439;1268;108763;-73
2022/09/20 07:28:07;;;;;;;12.40;9.80;;;;;;;11.44;86.34;99980.04;130610;1268;108578;-74
2022/09/20 07:31:13;;;;;;;10.10;8.60;;;;;;;11.42;86.32;99983.38;130447;1268;109013;-73
2022/09/20 07:34:19;;;;;;;10.60;9.00;;;;;;;11.45;86.26;99991.45;130405;1268;109636;-73
2022/09/20 07:37:24;;;;;;;10.00;8.80;;;;;;;11.43;85.94;99989.69;130526;1267;108875;-74
2022/09/20 07:40:30;;;;;;;10.80;9.30;;;;;;;11.50;86.39;99994.34;130407;1268;108700;-74
2022/09/20 07:43:36;;;;;;;15.50;13.00;;;;;;;11.58;86.14;99994.79;130490;1268;108677;-73
2022/09/20 07:46:42;;;;;;;9.70;8.10;;;;;;;11.63;85.87;99996.59;130440;1267;108859;-73
2022/09/20 07:49:47;;;;;;;11.80;10.60;;;;;;;11.71;85.88;99999.17;130506;1268;108786;-73
2022/09/20 07:52:55;;;;;;;11.30;8.20;;;;;;;11.92;86.14;99996.84;130485;1268;108989;-73
2022/09/20 07:56:05;;;;;;;10.70;9.40;;;;;;;12.21;85.64;99991.61;130419;1267;108939;-73
2022/09/20 07:59:12;;;;;;;11.90;10.10;;;;;;;12.36;85.14;99987.08;130454;1268;108724;-74
2022/09/20 08:02:18;;;;;;;12.00;10.20;;;;;;;12.58;84.61;99991.81;130464;1268;108573;-74
2022/09/20 08:05:23;;;;;;;11.20;9.50;;;;;;;12.47;82.83;99998.83;130499;1267;107617;-74
2022/09/20 08:08:31;;;;;;;11.60;9.40;;;;;;;12.43;84.98;99998.61;130458;1267;107566;-74
2022/09/20 08:11:38;;;;;;;10.10;8.50;;;;;;;12.59;85.26;100004.42;130428;1267;108791;-76
2022/09/20 08:14:43;;;;;;;9.80;8.40;;;;;;;12.75;84.93;100002.65;130355;1268;108965;-74
2022/09/20 08:17:49;;;;;;;10.50;9.40;;;;;;;12.81;83.15;100006.48;130509;1268;108651;-74
2022/09/20 08:20:55;;;;;;;11.10;9.00;;;;;;;12.52;82.21;100017.50;130450;1268;108752;-74
2022/09/20 08:24:02;;;;;;;12.00;10.50;;;;;;;12.28;82.62;100018.98;130342;1268;108836;-75
2022/09/20 08:27:08;;;;;;;11.00;9.80;;;;;;;12.16;82.57;100023.80;130415;1268;108546;-74
2022/09/20 08:30:14;;;;;;;10.90;9.00;;;;;;;12.05;83.21;100025.59;130498;1267;108932;-74
2022/09/20 08:33:19;;;;;;;9.70;8.10;;;;;;;11.90;83.21;100031.13;130392;1268;108591;-74
2022/09/20 08:36:26;;;;;;;10.10;8.90;;;;;;;11.89;84.26;100027.85;130457;1268;108665;-74
2022/09/20 08:39:31;;;;;;;12.30;10.00;;;;;;;12.04;84.28;100030.31;130471;1268;108885;-74
2022/09/20 08:42:37;;;;;;;10.50;8.90;;;;;;;12.26;84.33;100022.63;130397;1268;108779;-73
2022/09/20 08:45:43;;;;;;;10.90;9.70;;;;;;;12.57;84.38;100024.34;130488;1268;107508;-74
2022/09/20 08:48:50;;;;;;;10.50;9.20;;;;;;;12.86;83.55;100023.96;130386;1268;108632;-74
2022/09/20 08:51:57;;;;;;;9.80;8.10;;;;;;;13.02;83.28;100027.27;130368;1267;107329;-74
2022/09/20 08:55:03;;;;;;;10.50;9.40;;;;;;;13.01;82.03;100033.34;130406;1267;108654;-74
2022/09/20 08:58:12;;;;;;;10.20;9.10;;;;;;;12.89;82.33;100033.92;130493;1268;108492;-74
2022/09/20 09:01:21;;;;;;;9.40;8.40;;;;;;;12.80;81.05;100047.48;130423;1267;108503;-75
2022/09/20 09:04:35;;;;;;;9.70;8.40;;;;;;;12.68;81.98;100046.84;130379;1267;108603;-74
2022/09/20 09:07:40;;;;;;;8.80;7.90;;;;;;;12.71;81.62;100052.16;130380;1267;108922;-73
2022/09/20 09:10:51;;;;;;;8.70;6.70;;;;;;;12.75;82.61;100051.55;130376;1268;108578;-74
2022/09/20 09:14:03;;;;;;;12.00;7.70;;;;;;;12.91;82.16;100052.30;130388;1268;108723;-74
2022/09/20 09:17:10;;;;;;;14.10;8.90;;;;;;;12.97;81.85;100045.53;130448;1267;108602;-74
2022/09/20 09:20:21;;;;;;;8.10;7.00;;;;;;;13.05;81.72;100043.20;130418;1267;107251;-74
2022/09/20 09:23:30;;;;;;;11.00;7.60;;;;;;;13.19;81.17;100047.38;130423;1268;109115;-74
2022/09/20 09:26:39;;;;;;;8.90;8.00;;;;;;;13.33;81.54;100049.17;130444;1267;108664;-75
2022/09/20 09:29:52;;;;;;;8.40;7.00;;;;;;;13.47;80.80;100045.45;130421;1268;108954;-75
2022/09/20 09:33:25;;;;;;;7.80;7.00;;;;;;;13.50;80.53;100046.42;130487;1267;109035;-74
2022/09/20 09:36:31;;;;;;;7.00;5.30;;;;;;;13.56;80.62;100048.52;130476;1268;108592;-74
2022/09/20 09:39:39;;;;;;;9.70;6.40;;;;;;;13.66;80.91;100048.33;130425;1268;108669;-74
2022/09/20 09:42:52;;;;;;;8.60;6.10;;;;;;;13.66;78.28;100053.91;130374;1268;108730;-74
2022/09/20 09:46:20;;;;;;;6.60;5.90;;;;;;;13.52;78.61;100047.84;130464;1268;108677;-74
2022/09/20 09:49:28;;;;;;;13.60;7.50;;;;;;;13.41;79.07;100043.65;130470;1267;108991;-74
2022/09/20 09:52:35;;;;;;;9.10;6.20;;;;;;;13.46;79.77;100044.25;130425;1268;108650;-73
2022/09/20 09:56:16;;;;;;;7.10;6.00;;;;;;;13.58;80.34;100043.60;130462;1268;108610;-74
2022/09/20 09:59:45;;;;;;;7.30;5.60;;;;;;;13.84;80.55;100044.48;130525;1267;108759;-74
2022/09/20 10:03:21;;;;;;;8.60;5.30;;;;;;;14.15;79.92;100051.23;130455;1268;108583;-75
2022/09/20 10:06:32;;;;;;;8.10;5.80;;;;;;;14.25;77.74;100050.48;130409;1268;108782;-74
2022/09/20 10:09:55;;;;;;;5.60;5.00;;;;;;;14.37;79.46;100047.34;130434;1268;108669;-75
2022/09/20 10:13:15;;;;;;;5.80;5.10;;;;;;;14.46;78.20;100045.79;130390;1268;108733;-74
2022/09/20 10:16:32;;;;;;;7.20;5.60;;;;;;;14.51;77.01;100048.78;130452;1267;108754;-74
2022/09/20 10:23:28;;;;;;;6.30;5.70;;;;;;;14.48;76.57;100051.60;125847;1311;636431;-74
2022/09/20 10:26:59;;;;;;;6.50;5.60;;;;;;;14.26;76.92;100057.98;129289;1280;108850;-74
2022/09/20 10:30:12;;;;;;;5.20;4.70;;;;;;;14.09;76.22;100056.09;129288;1280;108806;-74
2022/09/20 10:33:27;;;;;;;5.70;5.00;;;;;;;14.07;77.69;100056.17;129174;1280;108690;-75
2022/09/20 10:36:42;;;;;;;6.40;5.60;;;;;;;14.17;76.13;100061.02;129127;1277;108307;-74
2022/09/20 10:39:54;;;;;;;5.60;5.00;;;;;;;14.15;76.86;100060.07;129089;1279;108606;-75
2022/09/20 10:43:15;;;;;;;6.80;5.70;;;;;;;14.24;75.71;100068.48;129366;1278;109188;-75
2022/09/20 10:46:33;;;;;;;5.30;4.70;;;;;;;14.24;76.61;100068.05;129359;1278;108767;-74
2022/09/20 10:49:46;;;;;;;6.90;5.70;;;;;;;14.34;75.26;100073.71;129458;1279;108793;-74
2022/09/20 10:53:03;;;;;;;6.20;5.20;;;;;;;14.31;75.15;100075.48;130002;1273;108732;-75
2022/09/20 10:56:25;;;;;;;5.90;5.00;;;;;;;14.21;74.22;100073.42;129997;1273;108827;-74
2022/09/20 10:59:47;;;;;;;6.80;5.20;;;;;;;14.31;75.27;100066.39;129962;1272;108839;-74
2022/09/20 11:03:06;;;;;;;6.20;5.40;;;;;;;14.57;75.81;100071.69;129862;1271;108786;-75
2022/09/20 11:06:21;;;;;;;7.70;6.30;;;;;;;14.76;73.43;100073.73;130077;1271;108677;-74
2022/09/20 11:09:31;;;;;;;6.60;5.80;;;;;;;14.69;74.14;100076.88;130032;1271;108766;-74
2022/09/20 11:12:41;;;;;;;7.30;5.30;;;;;;;14.80;74.95;100068.61;130000;1271;108937;-74
2022/09/20 11:15:52;;;;;;;6.50;4.90;;;;;;;14.90;74.44;100077.25;130045;1271;109205;-75
2022/09/20 11:19:03;;;;;;;5.30;4.60;;;;;;;14.81;72.75;100072.83;129964;1273;108746;-75
2022/09/20 11:22:13;;;;;;;5.20;4.20;;;;;;;14.69;73.10;100075.67;129923;1271;108632;-75
2022/09/20 11:25:21;;;;;;;6.20;4.70;;;;;;;14.62;74.68;100072.80;130117;1271;108650;-74
2022/09/20 11:28:34;;;;;;;5.20;4.40;;;;;;;14.64;73.66;100077.30;129915;1273;109377;-74
2022/09/20 11:31:43;;;;;;;5.50;4.20;;;;;;;14.63;73.16;100079.44;130067;1271;109340;-74
2022/09/20 11:34:54;;;;;;;5.20;3.80;;;;;;;14.56;73.02;100082.07;130157;1271;108891;-75
2022/09/20 11:38:11;;;;;;;5.70;3.80;;;;;;;14.58;73.26;100083.39;129997;1270;108755;-74
2022/09/20 11:41:21;;;;;;;4.30;3.80;;;;;;;14.70;74.42;100078.92;129888;1273;109125;-75
2022/09/20 11:44:26;;;;;;;5.70;4.10;;;;;;;14.71;73.48;100076.54;129939;1271;109239;-75
2022/09/20 11:47:37;;;;;;;5.20;4.00;;;;;;;14.72;73.42;100080.27;130073;1271;108999;-74
2022/09/20 11:51:28;;;;;;;4.00;3.60;;;;;;;14.82;73.93;100076.11;130085;1272;109167;-76
2022/09/20 11:54:55;;;;;;;4.00;3.40;;;;;;;15.08;72.12;100075.04;130066;1272;109165;-74
2022/09/20 11:58:08;;;;;;;4.00;3.60;;;;;;;15.08;71.36;100074.19;130058;1271;108691;-74
2022/09/20 12:01:15;;;;;;;4.70;3.50;;;;;;;14.95;69.99;100075.88;129972;1272;108854;-74
2022/09/20 12:04:25;;;;;;;4.70;4.20;;;;;;;14.79;70.56;100074.59;129827;1273;109895;-74
2022/09/20 12:07:35;;;;;;;4.50;3.80;;;;;;;14.80;71.24;100076.64;129909;1273;108880;-74
2022/09/20 12:10:41;;;;;;;4.40;4.00;;;;;;;14.86;70.99;100081.63;130107;1273;108802;-75
2022/09/20 12:13:58;;;;;;;4.60;4.10;;;;;;;14.94;71.79;100075.90;129992;1271;109786;-74
2022/09/20 12:17:04;;;;;;;4.50;4.10;;;;;;;15.01;70.43;100076.50;129910;1273;108828;-74
2022/09/20 12:20:52;;;;;;;4.10;3.30;;;;;;;15.11;70.93;100070.25;130047;1271;108937;-76
2022/09/20 12:24:23;;;;;;;4.50;4.00;;;;;;;15.18;70.44;100073.98;130065;1271;108869;-75
2022/09/20 12:27:58;;;;;;;5.20;4.60;;;;;;;15.21;69.76;100065.19;130104;1271;108707;-74
2022/09/20 12:31:47;;;;;;;5.10;4.60;;;;;;;15.29;70.43;100060.64;129984;1273;108785;-74
2022/09/20 12:34:52;;;;;;;5.10;4.30;;;;;;;15.15;69.91;100069.94;129266;1276;108593;-73
2022/09/20 12:38:16;;;;;;;5.10;4.60;;;;;;;14.84;70.78;100067.61;130129;1272;108959;-74
2022/09/20 12:41:22;;;;;;;6.20;5.30;;;;;;;14.63;72.40;100070.00;130160;1273;108836;-74
2022/09/20 12:44:32;;;;;;;9.70;6.70;;;;;;;14.48;72.62;100069.48;129843;1273;107705;-74
2022/09/20 12:47:38;;;;;;;6.20;4.80;;;;;;;14.32;72.47;100067.33;130084;1272;108563;-75
2022/09/20 12:54:23;;;;;;;15.50;9.50;;;;;;;14.04;73.25;100058.58;130059;1271;107701;-74
2022/09/20 12:57:34;;;;;;;11.00;7.20;;;;;;;13.94;73.61;100059.27;129874;1273;108572;-74
2022/09/20 13:00:43;;;;;;;31.10;14.70;;;;;;;13.81;73.95;100057.63;130140;1271;108770;-75
2022/09/20 13:03:50;;;;;;;73.70;41.40;;;;;;;13.86;74.40;100052.82;130112;1272;108782;-74
2022/09/20 13:07:43;;;;;;;30.50;23.00;;;;;;;14.02;74.53;100052.09;130162;1271;108458;-74
2022/09/20 13:10:55;;;;;;;1254.30;364.40;;;;;;;14.15;74.04;100052.15;130157;1273;108639;-76
2022/09/20 13:14:10;;;;;;;693.60;208.10;;;;;;;14.25;73.87;100052.56;130323;1272;109059;-73
2022/09/20 13:17:24;;;;;;;627.80;265.00;;;;;;;14.38;74.02;100053.05;130061;1273;108744;-78
2022/09/20 13:20:33;;;;;;;152.10;94.70;;;;;;;14.48;73.67;100049.05;130010;1273;108678;-77
2022/09/20 13:23:49;;;;;;;42.10;25.40;;;;;;;14.62;73.65;100051.48;130166;1272;108822;-75
2022/09/20 13:27:02;;;;;;;18.30;11.70;;;;;;;14.82;73.39;100055.12;129965;1273;108794;-71
2022/09/20 13:30:17;;;;;;;8.30;6.50;;;;;;;15.08;72.86;100051.48;130068;1273;108868;-72
2022/09/20 13:33:25;;;;;;;11.20;10.00;;;;;;;15.31;71.84;100053.47;130724;1271;108674;-72
2022/09/20 13:36:31;;;;;;;5.90;5.40;;;;;;;15.54;71.45;100054.88;130383;1273;108697;-75
2022/09/20 13:39:38;;;;;;;6.30;5.40;;;;;;;15.54;68.65;100056.66;130227;1273;108662;-73
2022/09/20 13:42:43;;;;;;;5.40;4.80;;;;;;;15.41;68.17;100058.63;129983;1273;107862;-75
2022/09/20 13:45:53;;;;;;;5.30;4.30;;;;;;;15.35;69.78;100057.60;130107;1271;108694;-72
2022/09/20 13:49:16;;;;;;;20.50;18.50;;;;;;;15.42;70.36;100058.02;130102;1273;108684;-76
2022/09/20 13:52:27;;;;;;;5.10;4.40;;;;;;;15.51;68.46;100057.92;130268;1271;108545;-73
2022/09/20 13:55:35;;;;;;;7.30;4.90;;;;;;;15.47;68.66;100051.70;130142;1271;108519;-70
2022/09/20 13:58:41;;;;;;;3.80;3.40;;;;;;;15.43;69.93;100053.70;130096;1271;108656;-71
2022/09/20 14:01:51;;;;;;;9.00;5.80;;;;;;;15.44;67.41;100056.84;129927;1273;107580;-70
2022/09/20 14:05:00;;;;;;;6.50;4.50;;;;;;;15.32;65.96;100061.17;129976;1271;108623;-72
2022/09/20 14:08:06;;;;;;;288.00;157.40;;;;;;;15.24;67.78;100059.85;130079;1273;108647;-69
2022/09/20 14:11:16;;;;;;;36.20;21.80;;;;;;;15.16;68.12;100064.28;129850;1271;108876;-74
2022/09/20 14:14:23;;;;;;;32.20;28.00;;;;;;;14.99;68.37;100063.66;130192;1270;108873;-73
2022/09/20 14:17:31;;;;;;;8.40;7.40;;;;;;;14.87;69.34;100062.52;130199;1270;108978;-74
2022/09/20 14:20:37;;;;;;;9.30;8.00;;;;;;;14.86;69.55;100062.73;130096;1272;109617;-72
2022/09/20 14:23:53;;;;;;;6.90;4.40;;;;;;;14.87;69.60;100061.60;129885;1273;108785;-74
2022/09/20 14:27:05;;;;;;;6.10;5.50;;;;;;;14.91;69.04;100060.30;129947;1273;108935;-74
2022/09/20 14:30:34;;;;;;;5.50;4.60;;;;;;;15.00;69.53;100057.02;130268;1273;108079;-74
2022/09/20 14:33:46;;;;;;;5.40;4.60;;;;;;;15.05;68.81;100058.81;130060;1273;108755;-74
2022/09/20 14:37:02;;;;;;;5.10;4.40;;;;;;;14.99;68.78;100057.08;129951;1273;108765;-75
2022/09/20 14:40:20;;;;;;;5.30;4.80;;;;;;;15.01;69.14;100053.71;129912;1273;108797;-74
2022/09/20 14:43:31;;;;;;;5.90;4.60;;;;;;;15.04;68.35;100052.69;129898;1273;108945;-75
2022/09/20 14:46:38;;;;;;;4.40;4.00;;;;;;;15.15;69.58;100045.34;129963;1273;108493;-75
2022/09/20 14:49:44;;;;;;;5.00;4.50;;;;;;;15.26;68.52;100049.60;130036;1272;109168;-74
2022/09/20 14:53:02;;;;;;;8.20;7.30;;;;;;;15.29;68.41;100056.59;129970;1273;109010;-74
2022/09/20 14:56:12;;;;;;;8.40;7.50;;;;;;;15.30;68.59;100056.06;130032;1273;108532;-76
2022/09/20 14:59:29;;;;;;;6.10;4.90;;;;;;;15.26;67.77;100060.73;130893;1273;108766;-77
2022/09/20 15:02:36;;;;;;;4.10;3.70;;;;;;;15.18;67.61;100068.56;129919;1273;106925;-77